Time;durP1;ratioP1;P1;durP2;ratioP2;P2;SDS_P1;SDS_P2;PMS_P1;PMS_P2;Temp;Humidity;BMP_temperature;BMP_pressure;BME280_temperature;BME280_humidity;BME280_pressure;Samples;Min_cycle;Max_cycle;Signal;HPM_P1;HPM_P2
2021/12/04 00:02:24;;;;;;;23.73;21.37;;;;;;;2.26;100.00;99991.28;5009133;28;20068;-59
2021/12/04 00:04:52;;;;;;;23.80;21.50;;;;;;;2.25;100.00;99986.94;5009858;28;20432;-58
2021/12/04 00:07:18;;;;;;;23.23;21.03;;;;;;;2.27;100.00;99985.34;5009412;28;20045;-59
2021/12/04 00:09:46;;;;;;;22.63;20.23;;;;;;;2.29;100.00;99978.66;5009734;28;20488;-59
2021/12/04 00:12:12;;;;;;;24.77;22.13;;;;;;;2.28;100.00;99971.78;5009580;28;20025;-56
2021/12/04 00:14:38;;;;;;;22.90;20.77;;;;;;;2.28;100.00;99964.13;5005435;28;20434;-59
2021/12/04 00:17:05;;;;;;;25.00;22.50;;;;;;;2.26;100.00;99963.16;5009533;28;20133;-57
2021/12/04 00:19:31;;;;;;;23.57;21.03;;;;;;;2.27;100.00;99947.00;5009465;28;20117;-58
2021/12/04 00:21:57;;;;;;;23.20;21.03;;;;;;;2.30;100.00;99946.28;5009328;28;20030;-58
2021/12/04 00:24:23;;;;;;;22.73;20.50;;;;;;;2.29;100.00;99937.72;5009135;28;20041;-58
2021/12/04 00:26:51;;;;;;;25.03;20.57;;;;;;;2.28;100.00;99936.84;5009365;28;20037;-59
2021/12/04 00:29:16;;;;;;;21.70;19.63;;;;;;;2.28;100.00;99936.00;5009233;28;20112;-58
2021/12/04 00:31:47;;;;;;;19.03;17.33;;;;;;;2.30;100.00;99936.06;5009111;28;20251;-59
2021/12/04 00:34:14;;;;;;;21.08;19.08;;;;;;;2.30;100.00;99933.50;5009342;28;20025;-58
2021/12/04 00:50:08;;;;;;;22.30;17.97;;;;;;;2.28;100.00;99926.63;5009473;28;20521;-59
2021/12/04 00:52:34;;;;;;;19.53;17.77;;;;;;;2.30;100.00;99920.72;5009085;28;20054;-59
2021/12/04 00:55:00;;;;;;;20.53;18.60;;;;;;;2.31;100.00;99920.81;5009508;28;20328;-58
2021/12/04 00:57:25;;;;;;;19.83;18.03;;;;;;;2.31;100.00;99918.25;5013433;28;20022;-59
2021/12/04 00:59:51;;;;;;;20.60;18.67;;;;;;;2.33;100.00;99920.88;5013114;28;20037;-59
2021/12/04 01:02:18;;;;;;;19.83;17.77;;;;;;;2.33;100.00;99921.75;5013264;28;20320;-58
2021/12/04 01:04:43;;;;;;;18.97;17.13;;;;;;;2.33;100.00;99919.19;5012798;28;20038;-57
2021/12/04 01:07:09;;;;;;;18.50;16.63;;;;;;;2.33;100.00;99914.09;5012601;28;20033;-58
2021/12/04 01:09:35;;;;;;;19.13;17.23;;;;;;;2.34;100.00;99922.66;5013351;28;20034;-59
2021/12/04 01:12:01;;;;;;;18.53;16.80;;;;;;;2.33;100.00;99919.19;5012442;28;20044;-58
2021/12/04 01:14:27;;;;;;;18.93;17.13;;;;;;;2.35;100.00;99921.84;5012761;28;20056;-59
2021/12/04 01:16:53;;;;;;;19.40;17.50;;;;;;;2.36;100.00;99933.81;5012502;28;20497;-57
2021/12/04 01:19:20;;;;;;;19.33;17.33;;;;;;;2.36;100.00;99934.69;5012739;28;20534;-58
2021/12/04 01:21:47;;;;;;;17.90;16.20;;;;;;;2.37;100.00;99923.69;5012762;28;20056;-59
2021/12/04 01:24:12;;;;;;;20.30;18.40;;;;;;;2.37;100.00;99931.34;5006343;28;20690;-58
2021/12/04 01:26:39;;;;;;;18.40;16.60;;;;;;;2.38;100.00;99927.09;5012627;28;20165;-57
2021/12/04 01:29:04;;;;;;;19.63;17.83;;;;;;;2.37;100.00;99923.69;5012433;28;20033;-59
2021/12/04 01:31:29;;;;;;;19.37;17.47;;;;;;;2.38;100.00;99921.97;5012764;28;20478;-59
2021/12/04 01:33:55;;;;;;;19.33;17.43;;;;;;;2.37;100.00;99923.69;5012015;28;20029;-59
2021/12/04 01:36:21;;;;;;;18.20;16.47;;;;;;;2.38;100.00;99912.63;5012124;28;20470;-59
2021/12/04 01:38:46;;;;;;;20.10;18.13;;;;;;;2.39;100.00;99916.94;5012156;28;20493;-58
2021/12/04 01:41:12;;;;;;;19.60;17.60;;;;;;;2.40;100.00;99912.72;5012147;28;20103;-59
2021/12/04 01:43:37;;;;;;;21.03;19.03;;;;;;;2.45;100.00;99907.81;5012517;28;20026;-58
2021/12/04 01:46:03;;;;;;;20.83;18.80;;;;;;;2.44;100.00;99916.31;5011826;28;20103;-59
2021/12/04 01:48:28;;;;;;;21.20;19.10;;;;;;;2.45;100.00;99920.59;5012026;28;20086;-57
2021/12/04 01:50:55;;;;;;;22.23;19.93;;;;;;;2.45;100.00;99918.03;5011626;28;20032;-59
2021/12/04 01:53:21;;;;;;;22.80;20.60;;;;;;;2.46;100.00;99914.69;5012111;28;20355;-59
2021/12/04 01:55:46;;;;;;;22.57;20.47;;;;;;;2.46;100.00;99909.59;5011826;28;20032;-59
2021/12/04 01:58:12;;;;;;;19.97;18.07;;;;;;;2.44;100.00;99906.97;5011567;28;20072;-59
2021/12/04 02:00:40;;;;;;;20.57;18.57;;;;;;;2.45;100.00;99905.25;5011739;28;20037;-58
2021/12/04 02:03:08;;;;;;;20.17;18.27;;;;;;;2.45;100.00;99901.03;5011741;28;20078;-59
2021/12/04 02:05:38;;;;;;;20.67;18.67;;;;;;;2.49;100.00;99902.94;5007642;28;20112;-58
2021/12/04 02:08:08;;;;;;;20.73;18.73;;;;;;;2.48;100.00;99908.00;5010263;28;20025;-58
2021/12/04 02:10:34;;;;;;;20.57;18.57;;;;;;;2.48;100.00;99906.28;5011829;28;20053;-59
2021/12/04 02:13:00;;;;;;;21.43;19.20;;;;;;;2.49;100.00;99899.50;5011447;28;20030;-58
2021/12/04 02:15:26;;;;;;;18.83;17.03;;;;;;;2.50;100.00;99881.66;5011233;28;20057;-59
2021/12/04 02:17:52;;;;;;;19.17;17.30;;;;;;;2.50;100.00;99885.94;5011214;28;20017;-57
2021/12/04 02:20:27;;;;;;;19.67;17.67;;;;;;;2.51;100.00;99874.88;5011346;28;20028;-57
2021/12/04 02:22:53;;;;;;;19.83;17.87;;;;;;;2.51;100.00;99862.09;5010694;28;20022;-59
2021/12/04 02:25:19;;;;;;;20.50;18.53;;;;;;;2.51;100.00;99857.88;5011299;28;20041;-59
2021/12/04 02:27:45;;;;;;;21.67;19.47;;;;;;;2.52;100.00;99851.03;5011313;28;20022;-59
2021/12/04 02:30:14;;;;;;;21.73;19.40;;;;;;;2.52;100.00;99848.50;5007297;28;20033;-58
2021/12/04 02:32:40;;;;;;;23.87;21.43;;;;;;;2.51;100.00;99846.75;5011084;28;20279;-59
2021/12/04 02:35:11;;;;;;;22.13;19.83;;;;;;;2.51;100.00;99841.63;5011042;28;20033;-58
2021/12/04 02:37:38;;;;;;;20.47;18.47;;;;;;;2.52;100.00;99833.13;5010645;28;20118;-58
2021/12/04 02:40:07;;;;;;;20.10;18.17;;;;;;;2.53;100.00;99832.34;5011298;28;20466;-59
2021/12/04 02:42:32;;;;;;;20.13;18.03;;;;;;;2.53;100.00;99834.91;5010654;28;20041;-59
2021/12/04 02:45:00;;;;;;;19.30;17.27;;;;;;;2.49;100.00;99828.78;5010801;28;20034;-59
2021/12/04 02:47:27;;;;;;;19.07;16.83;;;;;;;2.50;100.00;99821.97;5011152;28;20080;-59
2021/12/04 02:49:53;;;;;;;17.83;16.03;;;;;;;2.53;100.00;99829.81;5006980;28;20026;-57
2021/12/04 02:52:19;;;;;;;18.97;17.07;;;;;;;2.53;100.00;99819.56;5010199;28;20049;-56
2021/12/04 02:54:45;;;;;;;17.90;16.10;;;;;;;2.52;100.00;99826.34;5010326;28;20073;-59
2021/12/04 02:57:13;;;;;;;17.97;16.07;;;;;;;2.53;100.00;99824.69;5010229;28;20013;-59
2021/12/04 02:59:40;;;;;;;17.10;15.40;;;;;;;2.53;100.00;99824.69;5010180;28;20029;-59
2021/12/04 03:02:15;;;;;;;15.97;14.47;;;;;;;2.52;100.00;99828.91;5010399;28;20025;-59
2021/12/04 03:04:41;;;;;;;15.37;13.83;;;;;;;2.52;100.00;99826.34;5010105;28;20037;-59
2021/12/04 03:07:07;;;;;;;15.57;14.00;;;;;;;2.54;100.00;99828.97;5010142;28;20453;-58
2021/12/04 03:09:34;;;;;;;14.50;13.00;;;;;;;2.53;100.00;99822.13;5010591;28;20064;-58
2021/12/04 03:12:06;;;;;;;14.87;13.47;;;;;;;2.52;100.00;99822.91;5009936;28;20038;-59
2021/12/04 03:14:32;;;;;;;12.97;11.67;;;;;;;2.53;100.00;99819.56;5009955;28;20038;-58
2021/12/04 03:16:58;;;;;;;13.47;12.10;;;;;;;2.52;100.00;99815.22;5009960;28;20454;-57
2021/12/04 03:19:24;;;;;;;12.70;11.40;;;;;;;2.52;100.00;99807.56;5009988;28;20113;-59
2021/12/04 03:21:49;;;;;;;12.50;11.37;;;;;;;2.52;100.00;99798.22;5009943;28;20079;-58
2021/12/04 03:24:16;;;;;;;12.27;11.13;;;;;;;2.52;100.00;99799.88;5010190;28;20022;-58
2021/12/04 03:26:42;;;;;;;11.40;10.30;;;;;;;2.53;100.00;99799.09;5009978;28;20029;-59
2021/12/04 03:29:12;;;;;;;11.23;10.03;;;;;;;2.54;100.00;99805.97;5008580;28;20021;-59
2021/12/04 03:42:24;;;;;;;10.37;9.30;;;;;;;2.54;100.00;99792.31;5009529;28;20520;-58
2021/12/04 03:44:50;;;;;;;9.37;8.57;;;;;;;2.53;100.00;99783.75;5003935;28;20169;-59
2021/12/04 03:47:16;;;;;;;10.90;9.13;;;;;;;2.55;100.00;99789.81;5009213;28;20496;-59
2021/12/04 03:49:42;;;;;;;8.90;8.20;;;;;;;2.54;100.00;99782.94;5009863;28;20310;-57
2021/12/04 03:52:08;;;;;;;9.03;8.20;;;;;;;2.53;100.00;99778.63;5009123;28;20120;-59
2021/12/04 03:54:35;;;;;;;9.27;8.37;;;;;;;2.54;100.00;99772.72;5009932;28;20347;-59
2021/12/04 03:57:03;;;;;;;8.67;7.87;;;;;;;2.56;100.00;99766.00;5010112;28;20041;-59
2021/12/04 03:59:28;;;;;;;8.10;7.30;;;;;;;2.55;100.00;99771.91;5004064;28;20489;-59
2021/12/04 04:01:53;;;;;;;8.37;7.50;;;;;;;2.56;100.00;99772.78;5009659;28;20025;-59
2021/12/04 04:04:19;;;;;;;8.77;7.20;;;;;;;2.55;100.00;99766.81;5009190;28;20422;-58
2021/12/04 04:06:44;;;;;;;7.63;6.90;;;;;;;2.56;100.00;99778.78;5007726;28;20099;-59
2021/12/04 04:09:09;;;;;;;7.43;6.73;;;;;;;2.55;100.00;99774.47;5009097;28;20433;-59
2021/12/04 04:11:36;;;;;;;8.10;7.07;;;;;;;2.55;100.00;99764.25;5009802;28;20025;-58
2021/12/04 04:14:04;;;;;;;7.40;6.63;;;;;;;2.55;100.00;99761.69;5008845;28;20032;-58
2021/12/04 04:16:29;;;;;;;7.77;7.07;;;;;;;2.55;100.00;99755.69;5009069;28;20044;-58
2021/12/04 04:18:54;;;;;;;7.37;6.67;;;;;;;2.53;100.00;99753.06;5009757;28;20371;-58
2021/12/04 04:21:20;;;;;;;7.57;6.97;;;;;;;2.56;100.00;99753.19;5008706;28;20069;-58
2021/12/04 04:23:45;;;;;;;8.43;7.70;;;;;;;2.53;100.00;99745.38;5008894;28;20036;-57
2021/12/04 04:26:11;;;;;;;7.90;7.20;;;;;;;2.54;100.00;99749.69;5009273;28;20529;-58
2021/12/04 04:28:36;;;;;;;8.30;7.50;;;;;;;2.55;100.00;99746.34;5008729;28;20030;-59
2021/12/04 04:31:01;;;;;;;8.57;7.77;;;;;;;2.56;100.00;99742.97;5008251;28;20021;-58
2021/12/04 04:33:27;;;;;;;8.63;7.93;;;;;;;2.57;100.00;99749.84;5008723;28;20040;-59
2021/12/04 04:38:46;;;;;;;10.43;9.50;;;;;;;2.56;100.00;99747.19;5009004;28;20527;-59
2021/12/04 04:57:49;;;;;;;6.27;5.70;;;;;;;2.61;100.00;99736.38;5008969;28;20164;-59
2021/12/04 05:00:28;;;;;;;6.03;5.53;;;;;;;2.63;100.00;99741.56;5004600;28;20025;-59
2021/12/04 05:11:09;;;;;;;6.93;5.73;;;;;;;2.63;100.00;99732.22;5004613;28;20236;-59
2021/12/04 05:13:35;;;;;;;5.87;5.27;;;;;;;2.63;100.00;99729.66;5006614;28;20037;-59
2021/12/04 05:16:11;;;;;;;5.87;5.37;;;;;;;2.64;100.00;99731.41;5008383;28;20042;-59
2021/12/04 05:18:40;;;;;;;5.83;4.90;;;;;;;2.64;100.00;99718.59;5008889;28;20044;-58
2021/12/04 05:21:07;;;;;;;5.33;4.80;;;;;;;2.64;100.00;99710.94;5008537;28;20032;-57
2021/12/04 05:23:54;;;;;;;6.00;5.07;;;;;;;2.63;100.00;99704.06;5008102;28;20088;-59
2021/12/04 05:26:26;;;;;;;6.80;5.17;;;;;;;2.66;100.00;99708.47;5008259;28;20030;-58
2021/12/04 05:28:55;;;;;;;5.67;5.17;;;;;;;2.67;100.00;99709.31;5007972;28;20048;-58
2021/12/04 05:31:21;;;;;;;6.00;5.43;;;;;;;2.67;100.00;99712.75;5008610;28;20037;-59
2021/12/04 05:33:48;;;;;;;5.77;5.13;;;;;;;2.68;100.00;99711.09;5008306;28;20032;-59
2021/12/04 05:36:14;;;;;;;5.60;5.10;;;;;;;2.67;100.00;99711.88;5009009;28;20472;-59
2021/12/04 05:38:39;;;;;;;5.00;4.50;;;;;;;2.67;100.00;99710.22;5008299;28;20022;-58
2021/12/04 05:41:06;;;;;;;5.33;4.83;;;;;;;2.69;100.00;99712.84;5008728;28;20025;-59
2021/12/04 05:43:31;;;;;;;5.80;5.30;;;;;;;2.68;100.00;99711.09;5010794;28;20036;-58
2021/12/04 05:46:22;;;;;;;5.17;4.67;;;;;;;2.69;100.00;99712.84;5011785;28;20018;-59
2021/12/04 05:49:02;;;;;;;5.73;5.23;;;;;;;2.69;100.00;99705.16;5011646;28;20033;-60
2021/12/04 05:52:14;;;;;;;5.20;4.80;;;;;;;2.71;100.00;99709.56;5011690;28;20033;-58
2021/12/04 05:56:51;;;;;;;4.97;4.57;;;;;;;2.71;100.00;99699.31;5009759;28;20096;-59
2021/12/04 05:59:16;;;;;;;5.27;4.77;;;;;;;2.70;100.00;99705.22;5010285;28;20026;-58
2021/12/04 06:01:42;;;;;;;4.93;4.27;;;;;;;2.72;100.00;99700.16;5011007;28;20033;-59
2021/12/04 06:04:07;;;;;;;5.57;5.07;;;;;;;2.72;100.00;99695.06;5011718;28;20109;-59
2021/12/04 06:06:33;;;;;;;4.80;4.30;;;;;;;2.71;100.00;99696.75;5011605;28;20029;-58
2021/12/04 06:08:58;;;;;;;5.83;4.70;;;;;;;2.73;100.00;99694.28;5010996;28;20025;-59
2021/12/04 06:11:23;;;;;;;5.13;4.67;;;;;;;2.72;100.00;99692.50;5011531;28;20034;-59
2021/12/04 06:13:49;;;;;;;4.77;4.37;;;;;;;2.72;100.00;99697.63;5011058;28;20053;-59
2021/12/04 06:16:16;;;;;;;5.77;5.17;;;;;;;2.72;100.00;99697.63;5011254;28;20053;-59
2021/12/04 06:18:45;;;;;;;5.40;5.00;;;;;;;2.73;100.00;99689.16;5011414;28;20630;-59
2021/12/04 06:23:55;;;;;;;6.00;5.50;;;;;;;2.72;100.00;99693.38;5011041;28;20449;-58
2021/12/04 06:26:21;;;;;;;6.27;5.70;;;;;;;2.71;100.00;99681.41;5011205;28;20026;-57
2021/12/04 06:28:46;;;;;;;6.13;5.63;;;;;;;2.71;100.00;99691.66;5011255;28;20072;-58
2021/12/04 06:31:12;;;;;;;6.67;5.97;;;;;;;2.70;100.00;99686.47;5007950;28;20050;-59
2021/12/04 06:33:39;;;;;;;7.30;6.70;;;;;;;2.72;100.00;99684.81;5010229;28;20030;-59
2021/12/04 06:36:05;;;;;;;7.53;6.83;;;;;;;2.72;100.00;99687.38;5010997;28;20087;-57
2021/12/04 06:38:31;;;;;;;7.43;6.73;;;;;;;2.71;100.00;99701.00;5011036;28;20030;-59
2021/12/04 06:40:56;;;;;;;7.33;6.63;;;;;;;2.70;100.00;99694.13;5011145;28;20189;-58
2021/12/04 06:43:22;;;;;;;7.90;7.20;;;;;;;2.72;100.00;99703.63;5011030;28;20037;-58
2021/12/04 06:45:57;;;;;;;7.53;6.80;;;;;;;2.71;100.00;99690.75;5011188;28;20029;-59
2021/12/04 06:48:25;;;;;;;7.57;6.87;;;;;;;2.71;100.00;99690.75;5009496;28;20467;-58
2021/12/04 06:51:03;;;;;;;8.20;7.40;;;;;;;2.72;100.00;99697.63;5011013;28;20053;-59
2021/12/04 06:53:35;;;;;;;8.23;7.40;;;;;;;2.72;100.00;99697.63;5010300;28;20026;-58
2021/12/04 06:56:03;;;;;;;8.23;7.33;;;;;;;2.72;100.00;99688.25;5010339;28;20034;-58
2021/12/04 06:58:29;;;;;;;7.97;7.27;;;;;;;2.73;100.00;99694.28;5010675;28;20563;-59
2021/12/04 07:00:55;;;;;;;9.03;8.23;;;;;;;2.73;100.00;99697.72;5010384;28;20061;-59
2021/12/04 07:03:20;;;;;;;8.67;7.87;;;;;;;2.73;100.00;99699.38;5007171;28;20126;-59
2021/12/04 07:05:46;;;;;;;8.60;7.70;;;;;;;2.74;100.00;99702.00;5010497;28;20030;-58
2021/12/04 07:08:11;;;;;;;8.80;7.90;;;;;;;2.75;100.00;99708.00;5010254;28;20029;-59
2021/12/04 07:10:37;;;;;;;8.20;7.47;;;;;;;2.75;100.00;99700.34;5010105;28;20117;-57
2021/12/04 07:13:04;;;;;;;8.53;7.63;;;;;;;2.76;100.00;99699.50;5010039;28;20021;-59
2021/12/04 07:15:31;;;;;;;8.10;7.40;;;;;;;2.75;100.00;99696.06;5010161;28;20046;-59
2021/12/04 07:17:57;;;;;;;8.70;7.80;;;;;;;2.76;100.00;99699.50;5010006;28;20470;-59
2021/12/04 07:20:23;;;;;;;9.47;8.57;;;;;;;2.77;100.00;99706.38;5010117;28;20109;-58
2021/12/04 07:22:49;;;;;;;8.40;7.70;;;;;;;2.78;100.00;99707.25;5009621;28;20557;-58
2021/12/04 07:25:14;;;;;;;8.37;7.57;;;;;;;2.76;100.00;99700.41;5009291;28;20295;-58
2021/12/04 07:27:40;;;;;;;8.03;7.27;;;;;;;2.78;100.00;99697.91;5010114;28;20026;-59
2021/12/04 07:30:06;;;;;;;8.13;7.40;;;;;;;2.77;100.00;99696.13;5009568;28;20333;-57
2021/12/04 07:32:32;;;;;;;8.50;7.07;;;;;;;2.76;100.00;99694.41;5009819;28;20040;-58
2021/12/04 07:34:57;;;;;;;8.63;7.73;;;;;;;2.78;100.00;99686.78;5009933;28;20033;-59
2021/12/04 07:37:23;;;;;;;8.50;7.80;;;;;;;2.77;100.00;99688.47;5009179;28;20515;-58
2021/12/04 07:39:48;;;;;;;8.60;7.73;;;;;;;2.79;100.00;99694.53;5008193;28;20053;-59
2021/12/04 07:42:14;;;;;;;7.60;6.80;;;;;;;2.79;100.00;99689.41;5009706;28;20033;-58
2021/12/04 07:44:39;;;;;;;7.60;6.90;;;;;;;2.80;100.00;99683.50;5008331;28;20545;-58
2021/12/04 07:47:04;;;;;;;8.13;7.33;;;;;;;2.80;100.00;99677.50;5009783;28;20285;-59
2021/12/04 07:49:30;;;;;;;8.57;7.70;;;;;;;2.82;100.00;99671.66;5008362;28;20076;-59
2021/12/04 07:51:55;;;;;;;7.90;7.20;;;;;;;2.82;100.00;99669.09;5008664;28;20053;-59
2021/12/04 07:54:21;;;;;;;7.70;7.00;;;;;;;2.85;100.00;99674.34;5006331;28;20108;-57
2021/12/04 07:56:46;;;;;;;7.40;6.77;;;;;;;2.86;100.00;99670.97;5009490;28;20061;-59
2021/12/04 07:59:11;;;;;;;7.10;6.50;;;;;;;2.87;100.00;99677.84;5009729;28;20079;-59
2021/12/04 08:01:37;;;;;;;8.23;7.50;;;;;;;2.87;100.00;99672.75;5009728;28;20037;-59
2021/12/04 08:04:04;;;;;;;9.00;8.20;;;;;;;2.87;100.00;99662.50;5009910;28;20030;-59
2021/12/04 08:06:32;;;;;;;8.80;8.00;;;;;;;2.89;100.00;99670.25;5005832;28;20029;-58
2021/12/04 08:08:58;;;;;;;8.90;8.10;;;;;;;2.90;100.00;99676.25;5008843;28;20033;-58
2021/12/04 08:11:25;;;;;;;8.20;7.43;;;;;;;2.89;100.00;99670.25;5007648;28;20037;-59
2021/12/04 08:13:51;;;;;;;8.87;8.07;;;;;;;2.89;100.00;99667.69;5009004;28;20474;-59
2021/12/04 08:16:16;;;;;;;8.23;7.43;;;;;;;2.92;100.00;99665.25;5009106;28;20052;-58
2021/12/04 08:18:41;;;;;;;9.63;8.73;;;;;;;2.94;100.00;99660.19;5009059;28;20040;-58
2021/12/04 08:21:08;;;;;;;9.73;8.53;;;;;;;2.93;100.00;99661.03;5008797;28;20072;-59
2021/12/04 08:23:33;;;;;;;9.30;8.50;;;;;;;2.95;100.00;99649.16;5006226;28;20029;-58
2021/12/04 08:25:58;;;;;;;10.03;8.33;;;;;;;2.95;100.00;99651.72;5006346;28;20030;-59
2021/12/04 08:28:24;;;;;;;9.70;8.73;;;;;;;2.95;100.00;99646.59;5008946;28;20034;-59
2021/12/04 08:30:50;;;;;;;11.10;10.00;;;;;;;2.96;100.00;99643.22;5009161;28;20053;-58
2021/12/04 08:33:16;;;;;;;10.77;9.67;;;;;;;2.98;100.00;99639.06;5007963;28;20033;-59
2021/12/04 08:35:42;;;;;;;14.87;10.70;;;;;;;2.99;100.00;99640.78;5006327;28;20033;-58
2021/12/04 08:38:10;;;;;;;11.17;9.87;;;;;;;2.99;100.00;99633.13;5007083;28;20513;-60
2021/12/04 08:40:37;;;;;;;12.23;10.63;;;;;;;2.98;100.00;99618.59;5008384;28;20079;-58
2021/12/04 08:43:04;;;;;;;11.00;9.90;;;;;;;2.98;100.00;99624.59;5008790;28;20075;-59
2021/12/04 08:45:30;;;;;;;12.57;10.63;;;;;;;3.00;100.00;99627.22;5007501;28;20033;-59
2021/12/04 08:47:55;;;;;;;11.43;10.23;;;;;;;3.01;100.00;99621.25;5009129;28;20041;-59
2021/12/04 08:50:25;;;;;;;11.63;10.43;;;;;;;3.01;100.00;99613.59;5009426;28;20034;-58
2021/12/04 08:52:50;;;;;;;12.93;11.63;;;;;;;3.02;100.00;99619.59;5008708;28;20406;-58
2021/12/04 08:55:17;;;;;;;12.47;11.20;;;;;;;3.02;100.00;99609.34;5008816;28;20033;-59
2021/12/04 08:57:43;;;;;;;12.60;10.33;;;;;;;3.02;100.00;99606.78;5005529;28;20027;-57
2021/12/04 09:00:14;;;;;;;11.67;10.50;;;;;;;3.06;100.00;99601.84;5009125;28;20397;-59
2021/12/04 09:02:40;;;;;;;10.60;9.50;;;;;;;3.07;100.00;99598.50;5008939;28;20045;-57
2021/12/04 09:05:07;;;;;;;10.33;9.00;;;;;;;3.08;100.00;99601.91;5002288;28;20030;-59
2021/12/04 09:07:33;;;;;;;9.40;8.53;;;;;;;3.13;100.00;99618.34;5008393;28;20419;-59
2021/12/04 09:09:58;;;;;;;9.17;8.27;;;;;;;3.16;100.00;99618.50;5000971;28;20036;-59
2021/12/04 09:12:26;;;;;;;9.83;8.73;;;;;;;3.19;100.00;99610.06;5007695;28;20033;-58
2021/12/04 09:14:53;;;;;;;7.83;7.13;;;;;;;3.23;100.00;99614.50;5008164;28;20041;-59
2021/12/04 09:17:19;;;;;;;8.77;7.87;;;;;;;3.25;100.00;99615.44;5010334;28;20116;-57
2021/12/04 09:19:45;;;;;;;8.90;7.97;;;;;;;3.29;100.00;99613.91;5009157;28;20166;-59
2021/12/04 09:22:35;;;;;;;8.40;7.60;;;;;;;3.29;100.00;99607.06;5011811;28;20468;-59
2021/12/04 09:24:59;;;;;;;7.67;6.83;;;;;;;3.33;100.00;99601.28;5006425;28;20474;-59
2021/12/04 09:35:35;;;;;;;6.83;5.93;;;;;;;3.38;100.00;99601.47;5010011;28;20168;-60
2021/12/04 10:24:56;;;;;;;9.33;8.43;;;;;;;3.48;100.00;99554.94;4969489;28;20510;-59
2021/12/04 10:32:55;;;;;;;10.60;9.60;;;;;;;3.52;100.00;99548.25;4964025;28;20131;-58
2021/12/04 10:35:23;;;;;;;10.10;9.20;;;;;;;3.51;100.00;99533.66;4968364;28;20117;-59
2021/12/04 10:38:03;;;;;;;10.43;9.53;;;;;;;3.51;100.00;99528.53;4969176;28;20538;-57
2021/12/04 10:40:42;;;;;;;10.73;9.83;;;;;;;3.52;100.00;99521.75;4969028;28;20050;-59
2021/12/04 10:43:14;;;;;;;10.60;9.50;;;;;;;3.55;100.00;99524.41;4969386;28;20117;-59
2021/12/04 10:45:48;;;;;;;11.63;10.43;;;;;;;3.56;100.00;99518.50;4968713;28;20035;-59
2021/12/04 10:48:19;;;;;;;11.10;10.00;;;;;;;3.58;100.00;99519.44;5003524;28;20050;-59
2021/12/04 10:51:01;;;;;;;11.75;10.65;;;;;;;3.60;100.00;99508.41;5011194;28;20121;-58
2021/12/04 10:53:28;;;;;;;;;;;;;;;3.62;100.00;99507.63;5011317;28;20105;-59
2021/12/04 11:03:57;;;;;;;12.63;11.33;;;;;;;3.74;100.00;99489.28;5011522;28;20041;-59
2021/12/04 11:35:08;;;;;;;12.23;11.13;;;;;;;4.01;100.00;99445.84;4977414;28;20076;-60
2021/12/04 11:38:03;;;;;;;10.80;9.83;;;;;;;4.02;100.00;99449.28;4976417;28;20022;-58
2021/12/04 11:43:18;;;;;;;10.10;9.30;;;;;;;4.05;100.00;99434.00;4978154;28;20555;-58
2021/12/04 11:46:00;;;;;;;9.73;8.93;;;;;;;4.04;100.00;99433.16;4981859;28;20503;-59
2021/12/04 11:48:35;;;;;;;8.60;7.93;;;;;;;4.07;100.00;99427.25;4975950;28;20027;-59
2021/12/04 11:51:03;;;;;;;9.17;8.37;;;;;;;4.08;100.00;99429.84;4976692;28;20442;-59
2021/12/04 11:53:32;;;;;;;9.30;8.53;;;;;;;4.09;100.00;99425.59;4986716;28;20038;-59
2021/12/04 11:55:57;;;;;;;8.97;8.07;;;;;;;4.11;100.00;99417.97;5009673;28;20117;-59
2021/12/04 11:58:24;;;;;;;8.53;7.73;;;;;;;4.08;100.00;99416.19;5009805;28;20109;-58
2021/12/04 12:00:54;;;;;;;8.47;7.77;;;;;;;4.06;100.00;99416.13;5010053;28;20033;-58
2021/12/04 12:03:23;;;;;;;9.20;8.30;;;;;;;4.08;100.00;99405.94;5004358;28;20029;-58
2021/12/04 12:05:54;;;;;;;8.57;7.77;;;;;;;4.08;100.00;99413.63;5009748;28;20037;-59
2021/12/04 12:08:32;;;;;;;8.30;7.50;;;;;;;4.07;100.00;99416.97;5009275;28;20617;-58
2021/12/04 12:11:10;;;;;;;8.57;7.73;;;;;;;4.06;100.00;99405.00;5009323;28;20084;-57
2021/12/04 12:13:35;;;;;;;8.50;7.70;;;;;;;4.06;100.00;99405.00;5009610;28;20059;-59
2021/12/04 12:16:18;;;;;;;9.27;8.37;;;;;;;4.05;100.00;99408.34;5009229;28;20132;-60
2021/12/04 12:18:54;;;;;;;8.30;7.60;;;;;;;4.05;100.00;99401.56;5009536;28;20030;-60
2021/12/04 12:21:26;;;;;;;8.97;8.27;;;;;;;4.06;100.00;99405.00;5003005;28;20127;-59
2021/12/04 12:27:29;;;;;;;8.63;7.93;;;;;;;4.05;100.00;99403.22;4986178;28;20037;-59
2021/12/04 12:34:08;;;;;;;10.07;9.17;;;;;;;4.04;100.00;99394.69;4985326;28;20053;-58
2021/12/04 12:36:12;;;;;;;10.87;9.77;;;;;;;4.01;100.00;99394.56;4977579;28;20042;-59
2021/12/04 12:38:51;;;;;;;10.83;9.93;;;;;;;4.01;100.00;99396.28;4980897;28;20034;-58
2021/12/04 12:41:30;;;;;;;11.43;10.43;;;;;;;4.01;100.00;99397.13;4986729;28;20034;-59
2021/12/04 12:44:04;;;;;;;12.27;10.97;;;;;;;4.01;100.00;99406.53;4986873;28;20042;-59
2021/12/04 12:46:47;;;;;;;12.43;11.27;;;;;;;4.00;100.00;99410.78;4986723;28;20045;-59
2021/12/04 12:49:20;;;;;;;12.83;11.57;;;;;;;3.98;100.00;99409.84;4986837;28;20085;-57
2021/12/04 12:51:54;;;;;;;12.50;11.27;;;;;;;3.94;100.00;99410.56;4988068;28;20611;-58
2021/12/04 12:54:30;;;;;;;14.93;12.03;;;;;;;3.90;100.00;99409.59;4990439;28;20037;-59
2021/12/04 12:57:04;;;;;;;12.47;11.30;;;;;;;3.90;100.00;99408.69;4990864;28;20042;-59
2021/12/04 12:59:43;;;;;;;11.90;10.70;;;;;;;3.88;100.00;99405.22;4990692;28;20049;-59
2021/12/04 13:13:43;;;;;;;13.60;12.20;;;;;;;3.82;100.00;99391.34;5012985;28;20049;-58
2021/12/04 13:16:34;;;;;;;14.57;12.97;;;;;;;3.83;100.00;99387.97;5007713;28;20077;-59
2021/12/04 13:19:03;;;;;;;;;;;;;;;3.84;100.00;99393.97;5010959;28;20045;-59
2021/12/04 13:21:32;;;;;;;14.93;13.43;;;;;;;3.83;100.00;99387.97;5012999;28;19913;-59
2021/12/04 13:30:45;;;;;;;18.50;16.35;;;;;;;3.88;100.00;99385.59;5012636;28;20516;-58
2021/12/04 13:33:10;;;;;;;20.57;17.17;;;;;;;3.90;100.00;99377.94;5012055;28;20036;-59
2021/12/04 13:35:36;;;;;;;21.87;18.73;;;;;;;3.92;100.00;99381.44;5012485;28;20029;-57
2021/12/04 13:38:03;;;;;;;22.80;18.47;;;;;;;3.92;100.00;99382.28;5012323;28;20025;-59
2021/12/04 13:40:29;;;;;;;23.07;19.97;;;;;;;3.94;100.00;99379.81;5012041;28;20026;-59
2021/12/04 13:42:54;;;;;;;21.43;19.13;;;;;;;3.92;100.00;99381.44;5012334;28;20474;-59
2021/12/04 13:45:21;;;;;;;22.27;19.87;;;;;;;3.93;100.00;99393.44;5012157;28;20041;-59
2021/12/04 13:47:56;;;;;;;22.57;19.70;;;;;;;3.93;100.00;99375.47;5012243;28;20034;-58
2021/12/04 13:53:02;;;;;;;24.87;19.23;;;;;;;3.96;100.00;99384.16;5006400;28;20030;-59
2021/12/04 13:55:29;;;;;;;25.20;19.27;;;;;;;3.97;100.00;99387.59;5011912;28;20401;-58
2021/12/04 13:57:57;;;;;;;22.30;18.97;;;;;;;3.96;100.00;99389.28;5011933;28;20068;-59
2021/12/04 14:00:23;;;;;;;24.57;20.10;;;;;;;3.99;100.00;99388.53;5011757;28;20037;-59
2021/12/04 14:02:48;;;;;;;21.47;18.43;;;;;;;3.98;100.00;99381.63;5010882;28;20497;-58
2021/12/04 14:05:17;;;;;;;21.83;19.10;;;;;;;3.95;100.00;99376.41;5011724;28;20022;-59
2021/12/04 14:07:52;;;;;;;20.90;18.33;;;;;;;3.96;100.00;99380.72;5010113;28;20034;-59
2021/12/04 14:10:23;;;;;;;20.97;17.77;;;;;;;3.96;100.00;99378.16;5011647;28;20065;-60
2021/12/04 14:12:49;;;;;;;19.50;17.40;;;;;;;3.97;100.00;99385.03;5011525;28;20065;-59
2021/12/04 14:15:17;;;;;;;19.20;17.20;;;;;;;3.97;100.00;99383.31;5011437;28;20088;-59
2021/12/04 14:17:43;;;;;;;21.70;17.80;;;;;;;3.99;100.00;99377.41;5011582;28;20026;-60
2021/12/04 14:20:13;;;;;;;20.70;18.13;;;;;;;4.01;100.00;99375.75;5006117;28;20049;-59
2021/12/04 14:22:52;;;;;;;20.87;18.30;;;;;;;4.02;100.00;99378.38;5011407;28;20453;-60
2021/12/04 14:25:18;;;;;;;20.27;18.13;;;;;;;4.04;100.00;99386.13;5011241;28;20037;-58
2021/12/04 14:27:45;;;;;;;20.70;17.67;;;;;;;4.03;100.00;99380.09;5011374;28;20068;-59
2021/12/04 14:30:15;;;;;;;20.97;18.73;;;;;;;4.04;100.00;99389.56;5011186;28;20032;-59
2021/12/04 14:32:43;;;;;;;21.50;18.30;;;;;;;4.05;100.00;99395.53;5011270;28;20044;-59
2021/12/04 14:35:15;;;;;;;21.00;17.43;;;;;;;4.06;100.00;99389.63;5011270;28;20038;-58
2021/12/04 14:37:49;;;;;;;22.53;18.83;;;;;;;4.07;100.00;99397.34;5011260;28;20038;-58